Time;durP1;ratioP1;P1;durP2;ratioP2;P2;SDS_P1;SDS_P2;PMS_P1;PMS_P2;Temp;Humidity;BMP_temperature;BMP_pressure;BME280_temperature;BME280_humidity;BME280_pressure;Samples;Min_cycle;Max_cycle;Signal;HPM_P1;HPM_P2
2022/09/17 00:01:32;;;;;;;7.70;3.73;;;;;;;10.94;81.25;96939.00;6238517;28;20242;-41
2022/09/17 00:04:34;;;;;;;4.07;2.30;;;;;;;10.92;80.60;96933.03;6256758;28;20333;-43
2022/09/17 00:07:36;;;;;;;3.20;2.17;;;;;;;10.92;79.91;96916.34;6256639;28;20576;-42
2022/09/17 00:10:41;;;;;;;2.90;1.83;;;;;;;10.93;79.82;96920.66;6255781;28;20353;-43
2022/09/17 00:13:43;;;;;;;2.40;2.10;;;;;;;10.92;80.03;96919.81;6255418;28;20241;-41
2022/09/17 00:16:48;;;;;;;3.47;1.83;;;;;;;10.93;80.00;96921.50;6255903;28;20602;-40
2022/09/17 00:19:50;;;;;;;4.20;2.13;;;;;;;10.92;80.26;96924.25;6255790;28;20231;-41
2022/09/17 00:22:53;;;;;;;5.27;3.70;;;;;;;10.91;79.75;96925.25;6255294;28;20739;-41
2022/09/17 00:25:55;;;;;;;6.57;3.30;;;;;;;10.90;80.88;96927.03;6256296;28;20236;-40
2022/09/17 00:28:58;;;;;;;4.27;2.33;;;;;;;10.92;80.25;96934.81;6256098;28;20249;-41
2022/09/17 00:32:00;;;;;;;3.10;2.17;;;;;;;10.96;79.61;96941.50;6255631;28;20252;-41
2022/09/17 00:35:02;;;;;;;3.70;2.23;;;;;;;10.95;79.18;96938.03;6255393;28;20263;-42
2022/09/17 00:38:04;;;;;;;2.23;1.90;;;;;;;10.96;79.49;96955.53;6254565;28;20950;-41
2022/09/17 00:41:07;;;;;;;3.40;2.33;;;;;;;10.95;79.54;96945.94;6255666;28;20709;-41
2022/09/17 00:44:39;;;;;;;2.47;2.07;;;;;;;10.94;79.73;96951.38;6253676;28;20265;-41
2022/09/17 00:47:49;;;;;;;2.67;2.47;;;;;;;10.92;79.68;96953.31;6253962;28;20780;-41
2022/09/17 00:50:52;;;;;;;2.20;2.00;;;;;;;10.90;79.02;96948.16;6240722;28;20713;-41
2022/09/17 00:53:55;;;;;;;3.87;2.63;;;;;;;10.92;79.29;96943.59;6231816;28;20234;-43
2022/09/17 00:56:58;;;;;;;5.33;2.10;;;;;;;10.88;79.67;96944.81;6212969;28;20698;-41
2022/09/17 01:00:00;;;;;;;4.33;2.33;;;;;;;10.88;80.14;96941.38;6229496;28;20232;-40
2022/09/17 01:03:02;;;;;;;2.90;2.33;;;;;;;10.89;79.91;96948.31;6229708;28;20261;-41
2022/09/17 01:06:17;;;;;;;4.97;2.60;;;;;;;10.88;80.22;96957.22;6228537;28;20289;-42
2022/09/17 01:09:40;;;;;;;2.57;2.27;;;;;;;10.86;80.88;96961.81;6231031;28;20804;-41
2022/09/17 01:12:57;;;;;;;5.10;2.63;;;;;;;10.86;80.61;96946.81;6229770;28;20297;-42
2022/09/17 01:16:18;;;;;;;3.80;2.53;;;;;;;10.88;80.77;96946.66;6231855;28;20729;-41
2022/09/17 01:19:21;;;;;;;2.90;2.60;;;;;;;10.88;81.00;96928.19;6231030;28;20715;-40
2022/09/17 01:22:35;;;;;;;2.33;2.07;;;;;;;10.87;80.53;96913.31;6229036;28;20377;-41
2022/09/17 01:26:15;;;;;;;4.23;2.83;;;;;;;10.84;81.12;96917.06;6230246;28;20465;-41
2022/09/17 01:29:26;;;;;;;3.73;3.00;;;;;;;10.86;80.14;96924.84;6229333;28;20691;-41
2022/09/17 01:32:34;;;;;;;2.90;2.70;;;;;;;10.86;80.01;96932.78;6240313;28;20288;-41
2022/09/17 01:35:49;;;;;;;4.10;3.30;;;;;;;10.87;78.92;96924.72;6254474;28;20819;-42
2022/09/17 01:39:11;;;;;;;3.47;2.57;;;;;;;10.85;79.57;96937.22;6254427;28;20660;-40
2022/09/17 01:42:31;;;;;;;3.50;3.07;;;;;;;10.80;80.05;96931.53;6236488;28;20227;-41
2022/09/17 01:45:57;;;;;;;3.17;2.60;;;;;;;10.78;80.90;96927.38;6254198;28;20260;-40
2022/09/17 01:49:03;;;;;;;3.07;2.40;;;;;;;10.66;81.77;96929.34;6254206;28;20238;-41
2022/09/17 01:52:10;;;;;;;3.90;2.33;;;;;;;10.61;82.69;96926.28;6253412;28;20296;-42
2022/09/17 01:55:15;;;;;;;3.13;2.83;;;;;;;10.55;82.82;96934.78;6254205;28;20243;-42
2022/09/17 01:58:24;;;;;;;5.97;3.07;;;;;;;10.55;82.02;96921.59;6235915;28;20710;-41
2022/09/17 02:01:48;;;;;;;3.00;2.70;;;;;;;10.57;81.91;96914.38;6253992;28;20349;-42
2022/09/17 02:05:07;;;;;;;4.00;2.73;;;;;;;10.53;81.44;96912.97;6226395;28;20675;-41
2022/09/17 02:08:16;;;;;;;2.57;2.37;;;;;;;10.56;81.81;96916.19;6226118;28;20313;-42
2022/09/17 02:11:18;;;;;;;5.00;3.00;;;;;;;10.61;80.98;96910.44;6226786;28;20238;-41
2022/09/17 02:14:27;;;;;;;7.50;2.83;;;;;;;10.64;81.17;96913.66;6230193;28;20740;-41
2022/09/17 02:17:43;;;;;;;3.60;2.67;;;;;;;10.63;81.18;96909.34;6231074;28;20333;-41
2022/09/17 02:20:53;;;;;;;7.23;2.70;;;;;;;10.62;81.51;96907.69;6217229;28;20278;-43
2022/09/17 02:24:13;;;;;;;2.80;2.60;;;;;;;10.63;81.78;96897.97;6206845;28;20861;-41
2022/09/17 02:27:24;;;;;;;3.10;2.80;;;;;;;10.60;81.69;96900.88;6206464;28;20238;-42
2022/09/17 02:30:26;;;;;;;4.73;3.10;;;;;;;10.65;80.47;96893.38;6190203;28;20711;-42
2022/09/17 02:33:32;;;;;;;3.17;2.87;;;;;;;10.70;80.23;96910.44;6206448;28;20241;-42
2022/09/17 02:36:34;;;;;;;7.53;3.03;;;;;;;10.71;80.91;96906.81;6247543;28;20230;-41
2022/09/17 02:39:37;;;;;;;3.60;2.93;;;;;;;10.71;80.72;96901.53;6257874;28;20232;-41
2022/09/17 02:43:17;;;;;;;4.50;2.93;;;;;;;10.74;80.39;96889.88;6240520;28;20295;-41
2022/09/17 02:46:54;;;;;;;5.30;2.77;;;;;;;10.78;79.58;96885.16;6258141;28;20241;-41
2022/09/17 02:50:05;;;;;;;2.50;2.30;;;;;;;10.79;79.63;96857.75;6173558;28;20237;-40
2022/09/17 02:53:18;;;;;;;3.07;2.33;;;;;;;10.82;79.03;96866.22;6258068;28;20239;-43
2022/09/17 02:56:45;;;;;;;2.70;2.47;;;;;;;10.83;78.65;96867.91;6257072;28;20234;-43
2022/09/17 03:00:18;;;;;;;3.33;2.40;;;;;;;10.87;77.51;96900.13;6258444;28;20599;-43
2022/09/17 03:03:35;;;;;;;3.50;2.33;;;;;;;10.90;78.15;96910.38;6164878;28;20606;-40
2022/09/17 03:06:39;;;;;;;2.03;1.90;;;;;;;10.90;78.04;96903.28;6181619;28;20232;-42
2022/09/17 03:09:42;;;;;;;2.20;1.53;;;;;;;10.88;79.29;96920.28;6181267;28;20239;-42
2022/09/17 03:12:44;;;;;;;3.43;2.37;;;;;;;10.81;79.13;96920.00;6181479;28;20311;-40
2022/09/17 03:15:46;;;;;;;3.40;2.77;;;;;;;10.80;78.15;96907.75;6180944;28;20608;-43
2022/09/17 03:18:49;;;;;;;3.80;2.53;;;;;;;10.81;78.04;96904.16;6181085;28;20227;-40
2022/09/17 03:21:51;;;;;;;6.50;2.50;;;;;;;10.83;78.20;96910.13;6159879;28;20252;-42
2022/09/17 03:24:53;;;;;;;2.83;2.47;;;;;;;10.82;78.23;96905.00;6157293;28;20845;-42
2022/09/17 03:27:55;;;;;;;2.50;2.30;;;;;;;10.81;78.43;96895.41;6156442;28;20232;-41
2022/09/17 03:30:57;;;;;;;2.63;2.33;;;;;;;10.78;78.61;96888.59;6158150;28;20713;-41
2022/09/17 03:34:00;;;;;;;5.40;2.70;;;;;;;10.78;78.57;96891.22;6133481;28;20277;-40
2022/09/17 03:37:02;;;;;;;2.67;2.23;;;;;;;10.79;78.82;96887.63;6133489;28;20244;-40
2022/09/17 03:40:05;;;;;;;2.97;2.40;;;;;;;10.76;79.46;96889.75;6202767;28;20324;-40
2022/09/17 03:43:08;;;;;;;3.30;2.47;;;;;;;10.74;78.92;96895.16;6232412;28;20237;-41
2022/09/17 03:46:10;;;;;;;3.50;2.50;;;;;;;10.76;79.14;96892.38;6238320;28;20736;-41
2022/09/17 03:49:12;;;;;;;2.70;2.27;;;;;;;10.77;79.28;96881.69;6255602;28;20247;-41
2022/09/17 03:52:14;;;;;;;2.43;2.23;;;;;;;10.76;79.03;96872.09;6231513;28;20238;-41
2022/09/17 03:55:16;;;;;;;2.63;2.43;;;;;;;10.75;79.24;96872.22;6231125;28;20722;-41
2022/09/17 03:58:18;;;;;;;5.80;2.50;;;;;;;10.72;79.80;96873.34;6231418;28;20234;-42
2022/09/17 04:01:20;;;;;;;2.27;2.00;;;;;;;10.70;79.86;96870.00;6231301;28;20242;-41
2022/09/17 04:04:23;;;;;;;3.63;2.20;;;;;;;10.70;79.94;96873.47;6230984;28;20610;-41
2022/09/17 04:07:25;;;;;;;2.63;2.30;;;;;;;10.68;80.13;96877.25;6232504;28;20716;-41
2022/09/17 04:10:28;;;;;;;3.50;2.60;;;;;;;10.67;80.32;96868.50;6231575;28;20244;-41
2022/09/17 04:13:30;;;;;;;2.57;2.23;;;;;;;10.66;80.38;96884.50;6231037;28;20241;-40
2022/09/17 04:16:32;;;;;;;2.37;2.20;;;;;;;10.64;80.65;96891.72;6234395;28;20250;-41
2022/09/17 04:19:34;;;;;;;2.90;2.37;;;;;;;10.61;80.98;96894.63;6236768;28;20252;-42
2022/09/17 04:22:36;;;;;;;3.47;2.50;;;;;;;10.59;81.19;96891.28;6232236;28;20226;-40
2022/09/17 04:25:38;;;;;;;3.00;2.50;;;;;;;10.57;81.59;96915.19;6232561;28;20811;-41
2022/09/17 04:28:40;;;;;;;2.97;2.20;;;;;;;10.54;81.84;96923.38;6229727;28;20380;-41
2022/09/17 04:31:42;;;;;;;3.80;3.20;;;;;;;10.55;81.99;96906.59;6234274;28;20255;-40
2022/09/17 04:34:44;;;;;;;3.13;2.77;;;;;;;10.55;81.99;96900.47;6254118;28;20602;-41
2022/09/17 04:37:56;;;;;;;2.77;2.57;;;;;;;10.56;82.52;96894.22;6254923;28;20241;-43
2022/09/17 04:40:59;;;;;;;3.10;2.80;;;;;;;10.53;82.74;96892.69;6254861;28;20233;-40
2022/09/17 04:44:01;;;;;;;3.80;2.60;;;;;;;10.54;82.74;96888.25;6255280;28;20244;-40
2022/09/17 04:47:04;;;;;;;3.87;2.90;;;;;;;10.55;83.51;96874.09;6254005;28;20238;-41
2022/09/17 04:50:06;;;;;;;3.03;2.80;;;;;;;10.57;83.21;96872.16;6255965;28;20274;-41
2022/09/17 04:53:08;;;;;;;4.63;2.80;;;;;;;10.59;83.00;96862.25;6255968;28;20303;-40
2022/09/17 04:56:10;;;;;;;3.20;2.90;;;;;;;10.59;83.02;96867.53;6255286;28;20253;-42
2022/09/17 04:59:12;;;;;;;3.27;2.97;;;;;;;10.60;82.81;96862.13;6254265;28;20225;-40
2022/09/17 05:02:14;;;;;;;5.27;3.47;;;;;;;10.61;82.50;96863.78;6254243;28;20264;-42
2022/09/17 05:05:18;;;;;;;4.53;3.50;;;;;;;10.62;82.26;96847.00;6236681;28;20241;-42
2022/09/17 05:08:21;;;;;;;2.97;2.67;;;;;;;10.64;82.65;96857.41;6255040;28;20241;-41
2022/09/17 05:11:23;;;;;;;4.27;2.70;;;;;;;10.67;82.80;96849.22;6253786;28;20613;-43
2022/09/17 05:14:25;;;;;;;4.03;3.57;;;;;;;10.68;82.52;96853.53;6252671;28;20233;-42
2022/09/17 05:17:27;;;;;;;3.07;2.83;;;;;;;10.73;82.27;96859.19;6253808;28;20229;-40
2022/09/17 05:20:30;;;;;;;3.07;2.77;;;;;;;10.75;82.06;96854.59;6253853;28;20756;-42
2022/09/17 05:23:32;;;;;;;3.87;3.33;;;;;;;10.77;81.98;96857.94;6254563;28;20682;-41
2022/09/17 05:26:34;;;;;;;5.93;4.40;;;;;;;10.74;81.62;96887.22;6252743;28;20234;-41
2022/09/17 05:29:36;;;;;;;4.40;4.00;;;;;;;10.73;81.17;96882.94;6253749;28;20237;-40
2022/09/17 05:32:39;;;;;;;4.40;3.77;;;;;;;10.77;80.88;96900.16;6253920;28;20242;-40
2022/09/17 05:35:43;;;;;;;4.87;4.10;;;;;;;10.79;80.06;96897.34;6235726;28;20242;-41
2022/09/17 05:38:45;;;;;;;7.23;4.03;;;;;;;10.82;79.95;96899.72;6253450;28;20234;-41
2022/09/17 05:41:47;;;;;;;4.07;3.60;;;;;;;10.85;80.33;96910.81;6253137;28;20608;-41
2022/09/17 05:44:50;;;;;;;6.23;3.23;;;;;;;10.87;80.54;96900.97;6253523;28;20375;-41
2022/09/17 05:47:56;;;;;;;4.47;3.50;;;;;;;10.90;79.69;96895.38;6251554;28;20324;-43
2022/09/17 05:50:58;;;;;;;5.53;3.67;;;;;;;10.96;79.77;96904.53;6239724;28;20227;-41
2022/09/17 05:54:00;;;;;;;3.47;3.17;;;;;;;11.00;79.74;96919.94;6228345;28;20246;-43
2022/09/17 05:57:02;;;;;;;5.93;4.87;;;;;;;11.05;79.63;96904.50;6227479;28;20293;-41
2022/09/17 06:00:05;;;;;;;3.90;3.23;;;;;;;11.09;79.60;96908.50;6211132;28;20579;-40
2022/09/17 06:03:14;;;;;;;2.97;2.77;;;;;;;11.14;80.03;96886.13;6227776;28;20777;-41
2022/09/17 06:06:17;;;;;;;3.07;2.77;;;;;;;11.18;80.73;96877.72;6228560;28;20576;-41
2022/09/17 06:09:19;;;;;;;3.93;2.63;;;;;;;11.22;80.24;96852.72;6228293;28;20237;-42
2022/09/17 06:12:22;;;;;;;7.37;3.17;;;;;;;11.22;79.98;96847.41;6228600;28;20249;-41
2022/09/17 06:15:26;;;;;;;2.63;2.43;;;;;;;11.27;79.74;96831.97;6228607;28;20426;-41
2022/09/17 06:18:30;;;;;;;5.07;2.93;;;;;;;11.32;79.09;96829.72;6228538;28;20235;-41
2022/09/17 06:21:32;;;;;;;3.23;2.83;;;;;;;11.37;78.76;96816.91;6229276;28;20274;-41
2022/09/17 06:24:34;;;;;;;8.20;2.97;;;;;;;11.42;78.68;96837.56;6227343;28;20242;-42
2022/09/17 06:27:36;;;;;;;2.40;2.20;;;;;;;11.46;78.38;96850.34;6228317;28;20231;-41
2022/09/17 06:30:38;;;;;;;2.80;2.07;;;;;;;11.47;77.12;96864.41;6228162;28;20768;-41
2022/09/17 06:33:40;;;;;;;2.57;2.37;;;;;;;11.43;76.47;96845.34;6230690;28;20709;-42
2022/09/17 06:36:42;;;;;;;2.10;1.90;;;;;;;11.50;76.68;96850.88;6257985;28;20310;-41
2022/09/17 06:39:44;;;;;;;3.10;1.67;;;;;;;11.59;76.92;96847.31;6252815;28;20719;-42
2022/09/17 06:42:46;;;;;;;3.43;1.67;;;;;;;11.72;77.19;96873.41;6252386;28;20438;-42
2022/09/17 06:45:56;;;;;;;3.40;1.70;;;;;;;11.72;76.82;96866.28;6251692;28;20594;-40
2022/09/17 06:48:59;;;;;;;3.03;1.80;;;;;;;11.67;75.58;96871.22;6253061;28;20649;-41
2022/09/17 06:52:02;;;;;;;3.60;1.33;;;;;;;11.71;75.66;96875.19;6252700;28;20581;-42
2022/09/17 06:55:05;;;;;;;2.13;1.93;;;;;;;11.74;75.78;96866.97;6251285;28;20275;-42
2022/09/17 06:58:07;;;;;;;2.80;2.43;;;;;;;11.78;75.46;96867.53;6252925;28;20223;-41
2022/09/17 07:01:13;;;;;;;3.60;2.60;;;;;;;11.87;75.06;96858.72;6256793;28;21105;-41
2022/09/17 08:03:53;;;;;;;2.77;2.10;;;;;;;12.05;71.11;96954.75;5825470;28;20256;-44
2022/09/17 08:06:55;;;;;;;1.83;1.53;;;;;;;12.13;71.41;96954.81;6253463;28;20329;-42
2022/09/17 08:09:57;;;;;;;2.17;1.70;;;;;;;12.23;71.12;96961.84;6254182;28;20245;-42
2022/09/17 08:12:59;;;;;;;2.00;1.53;;;;;;;12.40;70.09;96977.72;6256001;28;20238;-41
2022/09/17 08:16:06;;;;;;;1.53;1.43;;;;;;;12.55;69.60;96980.69;6253012;28;20237;-41
2022/09/17 08:19:09;;;;;;;1.20;1.10;;;;;;;12.42;70.32;96985.50;6254666;28;20242;-42
2022/09/17 08:22:11;;;;;;;1.20;1.07;;;;;;;12.47;69.71;96991.19;6229863;28;20928;-41
2022/09/17 08:25:14;;;;;;;1.53;1.10;;;;;;;12.60;69.16;96990.78;6230123;28;20262;-42
2022/09/17 08:28:16;;;;;;;3.43;1.30;;;;;;;12.58;67.84;96989.13;6229760;28;20235;-42
2022/09/17 08:31:18;;;;;;;1.80;1.60;;;;;;;12.56;68.47;96996.41;6230533;28;20236;-41
2022/09/17 08:34:21;;;;;;;1.93;1.60;;;;;;;12.65;68.18;96994.66;6254522;28;20238;-42
2022/09/17 08:37:23;;;;;;;1.77;1.07;;;;;;;12.79;67.52;97017.09;6254375;28;20243;-43
2022/09/17 08:40:27;;;;;;;2.20;1.57;;;;;;;12.75;65.73;97021.06;6254573;28;20604;-43
2022/09/17 08:43:32;;;;;;;2.90;1.87;;;;;;;12.83;66.60;97026.41;6254448;28;20336;-42
2022/09/17 08:46:48;;;;;;;2.40;1.33;;;;;;;12.94;67.14;97018.22;6254243;28;20257;-41
2022/09/17 08:50:06;;;;;;;3.17;1.30;;;;;;;12.82;66.31;97001.75;6253998;28;20275;-42
2022/09/17 08:53:37;;;;;;;1.53;1.13;;;;;;;12.87;66.34;97007.41;6253664;28;20321;-41
2022/09/17 08:56:43;;;;;;;2.17;1.10;;;;;;;12.79;65.31;97007.34;6237211;28;20230;-41
2022/09/17 09:00:04;;;;;;;4.27;1.90;;;;;;;12.76;65.66;97005.00;6253119;28;20227;-41
2022/09/17 09:03:37;;;;;;;3.10;1.20;;;;;;;12.83;65.97;97016.66;6252340;28;20265;-43
2022/09/17 09:06:53;;;;;;;2.13;1.40;;;;;;;12.68;64.72;97006.72;6253607;28;20230;-41
2022/09/17 09:10:07;;;;;;;2.70;1.33;;;;;;;12.77;64.69;97027.03;6254430;28;20265;-43
2022/09/17 09:13:14;;;;;;;3.00;1.87;;;;;;;12.84;64.13;97014.84;6253067;28;20694;-41
2022/09/17 09:16:24;;;;;;;2.13;1.30;;;;;;;12.80;63.64;97014.28;6253491;28;20323;-40
2022/09/17 09:19:31;;;;;;;2.47;1.50;;;;;;;12.90;64.01;97030.94;6254152;28;20236;-42
2022/09/17 09:22:53;;;;;;;4.00;1.50;;;;;;;12.64;63.08;97048.59;6253188;28;20757;-41
2022/09/17 09:26:17;;;;;;;2.80;1.20;;;;;;;12.52;63.79;97041.84;6252894;28;20368;-44
2022/09/17 09:29:34;;;;;;;2.03;1.10;;;;;;;12.43;64.39;97035.66;6252912;28;20657;-41
2022/09/17 09:33:16;;;;;;;2.53;1.90;;;;;;;12.36;65.11;97037.25;6254226;28;20701;-43
2022/09/17 09:36:20;;;;;;;3.00;1.40;;;;;;;12.43;65.03;97037.47;6252663;28;20204;-41
2022/09/17 09:39:28;;;;;;;3.13;2.10;;;;;;;12.50;65.42;97047.28;6239012;28;20227;-42
2022/09/17 09:42:38;;;;;;;5.70;2.00;;;;;;;12.35;65.09;97032.09;6250907;28;20250;-41
2022/09/17 09:46:01;;;;;;;2.67;1.30;;;;;;;12.38;64.75;97018.53;6252984;28;20222;-42
2022/09/17 09:49:23;;;;;;;2.90;1.30;;;;;;;12.39;64.65;97015.75;6253354;28;20238;-41
2022/09/17 09:52:50;;;;;;;3.00;1.70;;;;;;;12.44;64.30;97010.84;6229191;28;20235;-41
2022/09/17 09:56:13;;;;;;;4.00;2.90;;;;;;;12.42;64.22;97022.56;6228809;28;20232;-41
2022/09/17 09:59:17;;;;;;;1.83;1.20;;;;;;;12.39;63.75;97002.50;6228660;28;20866;-41
2022/09/17 10:02:19;;;;;;;3.33;1.70;;;;;;;12.53;64.16;97003.81;6228628;28;20243;-41
2022/09/17 10:05:22;;;;;;;6.77;2.53;;;;;;;12.49;64.55;97005.91;6227450;28;20228;-42
2022/09/17 10:08:26;;;;;;;11.93;6.53;;;;;;;12.51;64.84;97001.31;6229550;28;20329;-41
2022/09/17 10:11:33;;;;;;;3.77;1.47;;;;;;;12.48;63.64;96998.13;6228498;28;20728;-41
2022/09/17 10:14:41;;;;;;;3.20;1.53;;;;;;;12.37;64.59;96995.72;6226098;28;20273;-41
2022/09/17 10:17:42;;;;;;;2.80;1.10;;;;;;;12.40;64.26;96987.47;6228096;28;20240;-41
2022/09/17 10:21:03;;;;;;;4.27;3.20;;;;;;;12.59;63.61;96984.66;6240839;28;20638;-42
2022/09/17 10:24:27;;;;;;;5.03;2.80;;;;;;;12.72;63.26;96984.28;6252196;28;20678;-41
2022/09/17 10:27:30;;;;;;;2.30;1.50;;;;;;;12.73;63.06;96983.28;6252738;28;20233;-41
2022/09/17 10:30:33;;;;;;;3.10;1.20;;;;;;;12.86;63.96;96976.63;6252020;28;20233;-41
2022/09/17 10:34:02;;;;;;;2.17;1.43;;;;;;;12.89;62.69;96972.81;6253630;28;20697;-41
2022/09/17 10:37:04;;;;;;;2.50;1.00;;;;;;;12.99;63.55;96970.91;6246198;28;20230;-43
2022/09/17 10:40:18;;;;;;;1.57;1.00;;;;;;;13.02;62.34;96964.47;6240044;28;20234;-41
2022/09/17 10:43:22;;;;;;;1.90;0.90;;;;;;;13.01;62.67;96953.03;6255999;28;20349;-42
2022/09/17 10:46:32;;;;;;;2.40;1.37;;;;;;;13.13;63.62;96953.63;6256011;28;20712;-42
2022/09/17 10:49:39;;;;;;;1.58;1.30;;;;;;;13.17;61.62;96950.53;6255375;28;20455;-42
2022/09/17 10:52:48;;;;;;;3.07;1.27;;;;;;;13.27;61.29;96948.59;6255508;28;20647;-42
2022/09/17 10:56:15;;;;;;;3.77;1.60;;;;;;;13.57;62.26;96938.47;6255637;28;20387;-41
2022/09/17 11:00:06;;;;;;;3.60;1.63;;;;;;;14.02;59.82;96917.69;6257445;28;20231;-41
2022/09/17 11:03:24;;;;;;;3.80;1.30;;;;;;;14.29;58.36;96913.91;6179273;28;20233;-42
2022/09/17 11:07:11;;;;;;;3.23;1.10;;;;;;;14.08;57.33;96918.03;6180069;28;20245;-42
2022/09/17 11:10:34;;;;;;;0.90;0.90;;;;;;;14.28;57.26;96912.25;6179828;28;20616;-43
2022/09/17 11:13:56;;;;;;;3.73;1.97;;;;;;;14.60;57.25;96931.88;6179699;28;20260;-42
2022/09/17 11:17:17;;;;;;;2.30;1.17;;;;;;;14.78;56.72;96932.50;6180072;28;20241;-42
2022/09/17 11:20:25;;;;;;;2.27;1.10;;;;;;;14.72;57.00;96942.00;6180247;28;20240;-41
2022/09/17 11:24:03;;;;;;;3.67;1.50;;;;;;;14.68;56.39;96948.63;6178924;28;20229;-42
2022/09/17 11:27:34;;;;;;;2.57;1.93;;;;;;;14.73;54.42;96940.16;6179453;28;20237;-42
2022/09/17 11:30:55;;;;;;;3.97;1.57;;;;;;;14.40;55.97;96929.53;6179334;28;20770;-41
2022/09/17 11:34:15;;;;;;;4.00;1.67;;;;;;;14.24;56.77;96931.34;6156712;28;20725;-42
2022/09/17 11:37:24;;;;;;;5.23;2.97;;;;;;;14.57;56.77;96916.28;6169374;28;20654;-42
2022/09/17 11:40:35;;;;;;;4.03;1.87;;;;;;;14.83;55.45;96922.22;6232235;28;20248;-43
2022/09/17 11:43:45;;;;;;;5.23;3.20;;;;;;;15.03;55.36;96914.72;6231493;28;20232;-42
2022/09/17 11:47:01;;;;;;;4.20;3.10;;;;;;;15.10;54.84;96942.28;6231282;28;20245;-42
2022/09/17 11:50:49;;;;;;;4.20;1.93;;;;;;;14.58;56.21;96942.66;6239135;28;20508;-42
2022/09/17 11:54:05;;;;;;;5.17;2.00;;;;;;;14.42;56.31;96931.22;6154444;28;20294;-42
2022/09/17 11:57:48;;;;;;;5.43;3.57;;;;;;;14.17;57.38;96925.88;6152649;28;20683;-42
2022/09/17 12:00:58;;;;;;;3.87;1.60;;;;;;;13.85;58.45;96905.41;6083815;29;20834;-41
2022/09/17 12:04:09;;;;;;;3.70;1.97;;;;;;;13.81;58.17;96905.88;6080861;29;20696;-42
2022/09/17 12:07:29;;;;;;;4.13;1.57;;;;;;;13.58;58.05;96901.16;6084584;29;20246;-42
2022/09/17 12:11:13;;;;;;;3.13;1.67;;;;;;;13.47;59.27;96887.41;6084492;29;20738;-43
2022/09/17 12:14:23;;;;;;;2.40;1.60;;;;;;;13.49;58.73;96875.63;6075326;29;20708;-43
2022/09/17 12:17:35;;;;;;;2.57;1.50;;;;;;;13.51;59.13;96871.00;6084259;29;20437;-42
2022/09/17 12:20:41;;;;;;;2.80;1.30;;;;;;;13.58;58.63;96860.56;6083937;29;20295;-42
2022/09/17 12:23:51;;;;;;;4.97;1.40;;;;;;;13.60;59.41;96835.56;6067530;29;20242;-41
2022/09/17 12:27:02;;;;;;;3.63;1.33;;;;;;;13.65;58.54;96835.91;6106753;28;20236;-42
2022/09/17 12:30:14;;;;;;;3.17;2.00;;;;;;;13.77;58.11;96846.22;6158699;28;20651;-41
2022/09/17 12:33:36;;;;;;;6.03;1.43;;;;;;;13.51;59.70;96836.53;6223372;28;20251;-42
2022/09/17 12:36:49;;;;;;;2.30;1.40;;;;;;;13.56;59.97;96841.38;6229924;28;20254;-42
2022/09/17 12:40:19;;;;;;;3.60;1.50;;;;;;;13.72;59.72;96853.81;6229831;28;20346;-41
2022/09/17 12:43:47;;;;;;;2.87;1.20;;;;;;;13.60;58.83;96854.13;6229169;28;20243;-42
2022/09/17 12:47:16;;;;;;;2.67;1.40;;;;;;;13.61;60.63;96841.69;6192822;28;20231;-42
2022/09/17 12:50:25;;;;;;;2.27;1.40;;;;;;;13.66;60.56;96845.53;6219147;28;20229;-42
2022/09/17 12:53:40;;;;;;;2.90;1.30;;;;;;;13.72;60.67;96848.50;6205250;28;20732;-41
2022/09/17 12:57:13;;;;;;;2.37;1.27;;;;;;;13.58;61.00;96852.63;6204132;28;20711;-42
2022/09/17 13:00:15;;;;;;;3.70;1.67;;;;;;;13.33;60.45;96856.19;6204746;28;20279;-43
2022/09/17 13:03:36;;;;;;;4.90;1.73;;;;;;;13.23;60.62;96862.47;6215379;28;20319;-41
2022/09/17 13:07:16;;;;;;;6.93;2.43;;;;;;;13.04;60.86;96870.63;6228768;28;20748;-41
2022/09/17 13:11:01;;;;;;;4.33;1.73;;;;;;;13.02;61.18;96861.16;6231821;28;20626;-43
2022/09/17 13:14:22;;;;;;;2.80;1.60;;;;;;;12.99;60.90;96864.94;6167069;28;20232;-42
2022/09/17 13:17:55;;;;;;;2.50;1.60;;;;;;;12.82;60.39;96873.81;6229011;28;20314;-44
2022/09/17 13:21:36;;;;;;;2.50;1.37;;;;;;;12.70;62.16;96849.41;6247423;28;20228;-41
2022/09/17 13:24:41;;;;;;;2.13;1.37;;;;;;;12.64;61.58;96828.88;6252475;28;20273;-43
2022/09/17 13:27:50;;;;;;;5.80;1.50;;;;;;;12.51;62.51;96846.97;6251839;28;20668;-42
2022/09/17 13:30:58;;;;;;;3.10;1.27;;;;;;;12.51;61.75;96853.09;6252281;28;20296;-45
2022/09/17 13:34:01;;;;;;;3.17;1.13;;;;;;;12.55;62.03;96851.81;6252676;28;20443;-43
2022/09/17 13:37:17;;;;;;;4.83;1.20;;;;;;;12.54;61.64;96858.09;6253993;28;20238;-42
2022/09/17 13:40:30;;;;;;;4.07;1.13;;;;;;;12.55;62.26;96867.69;6237204;28;20233;-42
2022/09/17 13:43:32;;;;;;;2.07;1.03;;;;;;;12.61;62.69;96862.75;6252890;28;20231;-41
2022/09/17 13:46:36;;;;;;;3.90;2.10;;;;;;;12.61;62.53;96870.69;6253717;28;20603;-43
2022/09/17 13:49:50;;;;;;;2.87;1.37;;;;;;;12.61;63.25;96882.09;6252445;28;20243;-43
2022/09/17 13:52:54;;;;;;;4.37;1.60;;;;;;;12.53;63.20;96867.00;6253500;28;20774;-42
2022/09/17 13:55:59;;;;;;;7.47;2.10;;;;;;;12.52;62.65;96868.00;6251881;28;20854;-43
2022/09/17 13:59:10;;;;;;;3.03;1.40;;;;;;;12.46;62.38;96873.09;6253569;28;20571;-42
2022/09/17 14:02:27;;;;;;;2.67;1.70;;;;;;;12.41;63.42;96880.63;6251341;28;20329;-44
2022/09/17 14:05:34;;;;;;;2.30;1.47;;;;;;;12.40;63.87;96885.09;6252620;28;20235;-42
2022/09/17 14:08:42;;;;;;;2.73;0.90;;;;;;;12.34;63.64;96890.19;6255215;28;20307;-42
2022/09/17 14:11:44;;;;;;;5.63;1.67;;;;;;;12.20;63.35;96887.09;6257508;28;20318;-42
2022/09/17 14:14:50;;;;;;;3.70;1.97;;;;;;;12.08;63.17;96880.38;6257816;28;20316;-42
2022/09/17 14:17:52;;;;;;;3.80;1.30;;;;;;;12.02;63.75;96885.44;6256538;28;20238;-42
2022/09/17 14:21:06;;;;;;;2.70;1.63;;;;;;;12.00;64.07;96900.63;6257965;28;20230;-42
2022/09/17 14:24:23;;;;;;;2.67;1.50;;;;;;;11.92;63.38;96905.84;6256622;28;20326;-41
2022/09/17 14:27:45;;;;;;;4.17;1.27;;;;;;;11.85;63.09;96904.78;6257791;28;20241;-46
2022/09/17 14:30:47;;;;;;;3.53;1.23;;;;;;;11.90;63.61;96915.72;6256701;28;20227;-43
2022/09/17 14:33:49;;;;;;;1.77;0.90;;;;;;;11.95;63.99;96913.47;6239323;28;20248;-42
2022/09/17 14:36:52;;;;;;;2.37;1.00;;;;;;;11.94;64.90;96917.09;6240669;28;20268;-41
2022/09/17 14:39:54;;;;;;;1.53;1.03;;;;;;;11.88;65.10;96896.56;6256725;28;20726;-44
2022/09/17 14:42:57;;;;;;;2.83;0.83;;;;;;;11.87;64.95;96900.19;6223379;28;20742;-41
2022/09/17 14:46:02;;;;;;;1.93;1.37;;;;;;;11.77;64.21;96895.81;6255861;28;20721;-42
2022/09/17 14:49:25;;;;;;;1.93;1.20;;;;;;;11.77;64.56;96892.31;6253735;28;20238;-43
2022/09/17 14:52:30;;;;;;;1.27;0.83;;;;;;;11.78;64.75;96886.88;6257137;28;20783;-41
2022/09/17 14:55:32;;;;;;;3.70;0.60;;;;;;;11.80;65.26;96887.56;6256628;28;20322;-43
2022/09/17 14:58:39;;;;;;;1.70;0.57;;;;;;;11.75;65.21;96879.25;6256071;28;20239;-43
2022/09/17 15:01:54;;;;;;;2.57;0.93;;;;;;;11.76;65.09;96877.44;6257323;28;20617;-45
2022/09/17 15:04:56;;;;;;;3.07;1.03;;;;;;;11.75;65.49;96873.13;6256466;28;20662;-42
2022/09/17 15:08:17;;;;;;;2.23;1.60;;;;;;;11.74;64.66;96880.19;6256400;28;20236;-43
2022/09/17 15:11:20;;;;;;;1.43;0.80;;;;;;;11.66;65.02;96863.44;6257029;28;20230;-42
2022/09/17 15:14:27;;;;;;;2.17;0.87;;;;;;;11.69;64.77;96871.88;6239096;28;20270;-42
2022/09/17 15:17:29;;;;;;;1.77;0.60;;;;;;;11.63;65.54;96861.91;6256876;28;20577;-43
2022/09/17 15:20:31;;;;;;;2.73;0.87;;;;;;;11.64;65.48;96857.47;6256928;28;20244;-42
2022/09/17 15:23:35;;;;;;;1.33;0.70;;;;;;;11.64;66.53;96854.81;6254575;28;20601;-43
2022/09/17 15:26:41;;;;;;;1.90;0.53;;;;;;;11.54;66.57;96846.97;6256603;28;20696;-42
2022/09/17 15:29:46;;;;;;;1.30;0.80;;;;;;;11.60;67.04;96853.44;6256944;28;20659;-42
2022/09/17 15:32:56;;;;;;;1.20;0.70;;;;;;;11.64;66.85;96857.47;6254267;28;20381;-42
2022/09/17 15:36:20;;;;;;;2.60;0.63;;;;;;;11.68;66.71;96858.84;6255748;28;20314;-42
2022/09/17 15:39:30;;;;;;;0.77;0.60;;;;;;;11.64;67.10;96857.47;6257650;28;20239;-44
2022/09/17 15:42:32;;;;;;;1.20;0.50;;;;;;;11.53;66.90;96861.16;6255603;28;20227;-43
2022/09/17 15:45:37;;;;;;;1.07;0.40;;;;;;;11.52;67.67;96856.84;6256380;28;20238;-42
2022/09/17 15:48:40;;;;;;;0.40;0.40;;;;;;;11.52;67.97;96861.28;6255489;28;20230;-42
2022/09/17 15:51:42;;;;;;;1.43;0.50;;;;;;;11.48;67.98;96858.09;6256416;28;20523;-42
2022/09/17 15:54:44;;;;;;;0.63;0.40;;;;;;;11.40;68.04;96864.13;6255321;28;20245;-43